sensor_id;sensor_type;location;lat;lon;timestamp;P1;durP1;ratioP1;P2;durP2;ratioP2
16153;SDS011;8182;55.648;13.208;2023-05-10T00:00:47;5.03;;;3.60;;
16153;SDS011;8182;55.648;13.208;2023-05-10T00:03:15;5.50;;;3.83;;
16153;SDS011;8182;55.648;13.208;2023-05-10T00:05:48;6.87;;;3.77;;
16153;SDS011;8182;55.648;13.208;2023-05-10T00:08:16;5.57;;;3.93;;
16153;SDS011;8182;55.648;13.208;2023-05-10T00:10:43;5.97;;;3.77;;
16153;SDS011;8182;55.648;13.208;2023-05-10T00:13:15;8.13;;;4.10;;
16153;SDS011;8182;55.648;13.208;2023-05-10T00:15:44;10.10;;;4.23;;
16153;SDS011;8182;55.648;13.208;2023-05-10T00:18:18;4.73;;;3.67;;
16153;SDS011;8182;55.648;13.208;2023-05-10T00:20:45;5.47;;;4.00;;
16153;SDS011;8182;55.648;13.208;2023-05-10T00:23:19;6.50;;;4.10;;
16153;SDS011;8182;55.648;13.208;2023-05-10T00:25:47;5.77;;;3.70;;
16153;SDS011;8182;55.648;13.208;2023-05-10T00:28:26;9.90;;;4.30;;
16153;SDS011;8182;55.648;13.208;2023-05-10T00:30:54;6.67;;;4.30;;
16153;SDS011;8182;55.648;13.208;2023-05-10T00:33:21;5.60;;;3.73;;
16153;SDS011;8182;55.648;13.208;2023-05-10T00:35:48;6.43;;;3.60;;
16153;SDS011;8182;55.648;13.208;2023-05-10T00:38:16;9.57;;;4.33;;
16153;SDS011;8182;55.648;13.208;2023-05-10T00:40:50;5.97;;;3.63;;
16153;SDS011;8182;55.648;13.208;2023-05-10T00:43:24;7.00;;;4.07;;
16153;SDS011;8182;55.648;13.208;2023-05-10T00:46:04;8.03;;;4.40;;
16153;SDS011;8182;55.648;13.208;2023-05-10T00:48:45;8.97;;;4.07;;
16153;SDS011;8182;55.648;13.208;2023-05-10T00:51:12;5.33;;;4.07;;
16153;SDS011;8182;55.648;13.208;2023-05-10T00:53:40;7.97;;;4.23;;
16153;SDS011;8182;55.648;13.208;2023-05-10T00:56:08;6.40;;;3.70;;
16153;SDS011;8182;55.648;13.208;2023-05-10T00:58:40;8.43;;;4.20;;
16153;SDS011;8182;55.648;13.208;2023-05-10T01:01:14;6.40;;;4.23;;
16153;SDS011;8182;55.648;13.208;2023-05-10T01:03:41;9.00;;;3.97;;
16153;SDS011;8182;55.648;13.208;2023-05-10T01:06:09;4.10;;;3.67;;
16153;SDS011;8182;55.648;13.208;2023-05-10T01:08:40;8.07;;;4.10;;
16153;SDS011;8182;55.648;13.208;2023-05-10T01:11:08;5.57;;;4.10;;
16153;SDS011;8182;55.648;13.208;2023-05-10T01:16:10;6.87;;;3.97;;
16153;SDS011;8182;55.648;13.208;2023-05-10T01:18:38;8.67;;;4.20;;
16153;SDS011;8182;55.648;13.208;2023-05-10T01:21:14;5.47;;;3.50;;
16153;SDS011;8182;55.648;13.208;2023-05-10T01:23:57;5.27;;;3.57;;
16153;SDS011;8182;55.648;13.208;2023-05-10T01:26:58;7.80;;;3.80;;
16153;SDS011;8182;55.648;13.208;2023-05-10T01:32:49;6.40;;;4.13;;
16153;SDS011;8182;55.648;13.208;2023-05-10T01:35:23;8.60;;;4.30;;
16153;SDS011;8182;55.648;13.208;2023-05-10T01:37:59;7.53;;;3.93;;
16153;SDS011;8182;55.648;13.208;2023-05-10T01:40:35;6.87;;;3.80;;
16153;SDS011;8182;55.648;13.208;2023-05-10T01:43:11;7.30;;;4.23;;
16153;SDS011;8182;55.648;13.208;2023-05-10T01:45:46;5.67;;;4.37;;
16153;SDS011;8182;55.648;13.208;2023-05-10T01:48:18;9.20;;;4.27;;
16153;SDS011;8182;55.648;13.208;2023-05-10T01:50:47;6.83;;;4.37;;
16153;SDS011;8182;55.648;13.208;2023-05-10T01:53:17;7.70;;;4.53;;
16153;SDS011;8182;55.648;13.208;2023-05-10T01:56:03;7.00;;;4.17;;
16153;SDS011;8182;55.648;13.208;2023-05-10T01:58:34;6.47;;;3.93;;
16153;SDS011;8182;55.648;13.208;2023-05-10T02:01:33;10.13;;;3.90;;
16153;SDS011;8182;55.648;13.208;2023-05-10T02:04:15;6.53;;;4.10;;
16153;SDS011;8182;55.648;13.208;2023-05-10T02:06:47;7.67;;;4.60;;
16153;SDS011;8182;55.648;13.208;2023-05-10T02:09:23;6.30;;;4.30;;
16153;SDS011;8182;55.648;13.208;2023-05-10T02:11:55;6.40;;;3.00;;
16153;SDS011;8182;55.648;13.208;2023-05-10T02:14:27;6.37;;;4.20;;
16153;SDS011;8182;55.648;13.208;2023-05-10T02:16:57;4.80;;;3.60;;
16153;SDS011;8182;55.648;13.208;2023-05-10T02:19:29;8.53;;;4.13;;
16153;SDS011;8182;55.648;13.208;2023-05-10T02:21:58;7.13;;;4.47;;
16153;SDS011;8182;55.648;13.208;2023-05-10T02:24:27;6.13;;;4.10;;
16153;SDS011;8182;55.648;13.208;2023-05-10T02:26:56;7.67;;;4.47;;
16153;SDS011;8182;55.648;13.208;2023-05-10T02:29:24;6.77;;;4.40;;
16153;SDS011;8182;55.648;13.208;2023-05-10T02:31:54;5.77;;;4.23;;
16153;SDS011;8182;55.648;13.208;2023-05-10T02:34:25;4.37;;;3.70;;
16153;SDS011;8182;55.648;13.208;2023-05-10T02:36:55;8.40;;;4.03;;
16153;SDS011;8182;55.648;13.208;2023-05-10T02:39:23;4.50;;;2.83;;
16153;SDS011;8182;55.648;13.208;2023-05-10T02:41:54;4.90;;;3.80;;
16153;SDS011;8182;55.648;13.208;2023-05-10T02:44:23;6.10;;;3.73;;
16153;SDS011;8182;55.648;13.208;2023-05-10T02:46:54;4.83;;;3.90;;
16153;SDS011;8182;55.648;13.208;2023-05-10T02:49:22;5.77;;;4.13;;
16153;SDS011;8182;55.648;13.208;2023-05-10T02:51:58;6.17;;;4.53;;
16153;SDS011;8182;55.648;13.208;2023-05-10T02:54:30;8.17;;;4.30;;
16153;SDS011;8182;55.648;13.208;2023-05-10T02:57:03;5.40;;;4.07;;
16153;SDS011;8182;55.648;13.208;2023-05-10T02:59:32;7.07;;;4.10;;
16153;SDS011;8182;55.648;13.208;2023-05-10T03:01:59;6.70;;;4.03;;
16153;SDS011;8182;55.648;13.208;2023-05-10T03:04:27;6.43;;;4.37;;
16153;SDS011;8182;55.648;13.208;2023-05-10T03:06:55;7.03;;;4.23;;
16153;SDS011;8182;55.648;13.208;2023-05-10T03:09:25;6.00;;;4.17;;
16153;SDS011;8182;55.648;13.208;2023-05-10T03:11:55;5.63;;;4.30;;
16153;SDS011;8182;55.648;13.208;2023-05-10T03:14:34;10.77;;;4.40;;
16153;SDS011;8182;55.648;13.208;2023-05-10T03:17:14;10.37;;;4.50;;
16153;SDS011;8182;55.648;13.208;2023-05-10T03:19:47;6.90;;;4.30;;
16153;SDS011;8182;55.648;13.208;2023-05-10T03:22:21;4.83;;;3.90;;
16153;SDS011;8182;55.648;13.208;2023-05-10T03:24:52;7.90;;;4.50;;
16153;SDS011;8182;55.648;13.208;2023-05-10T03:27:23;8.37;;;4.40;;
16153;SDS011;8182;55.648;13.208;2023-05-10T03:29:54;7.57;;;4.80;;
16153;SDS011;8182;55.648;13.208;2023-05-10T03:32:23;6.83;;;4.30;;
16153;SDS011;8182;55.648;13.208;2023-05-10T03:34:52;5.83;;;3.97;;
16153;SDS011;8182;55.648;13.208;2023-05-10T03:37:21;16.37;;;10.33;;
16153;SDS011;8182;55.648;13.208;2023-05-10T03:39:50;6.13;;;4.13;;
16153;SDS011;8182;55.648;13.208;2023-05-10T03:42:17;7.03;;;3.87;;
16153;SDS011;8182;55.648;13.208;2023-05-10T03:47:22;7.53;;;4.67;;
16153;SDS011;8182;55.648;13.208;2023-05-10T03:49:50;5.97;;;3.87;;
16153;SDS011;8182;55.648;13.208;2023-05-10T03:52:17;9.20;;;4.23;;
16153;SDS011;8182;55.648;13.208;2023-05-10T03:54:46;8.00;;;4.10;;
16153;SDS011;8182;55.648;13.208;2023-05-10T03:57:28;6.87;;;4.10;;
16153;SDS011;8182;55.648;13.208;2023-05-10T03:59:55;6.30;;;4.73;;
16153;SDS011;8182;55.648;13.208;2023-05-10T04:02:22;8.07;;;4.63;;
16153;SDS011;8182;55.648;13.208;2023-05-10T04:04:49;6.13;;;5.10;;
16153;SDS011;8182;55.648;13.208;2023-05-10T04:07:16;6.60;;;4.57;;
16153;SDS011;8182;55.648;13.208;2023-05-10T04:09:43;8.80;;;4.30;;
16153;SDS011;8182;55.648;13.208;2023-05-10T04:12:13;5.70;;;4.27;;
16153;SDS011;8182;55.648;13.208;2023-05-10T04:14:40;8.03;;;3.60;;
16153;SDS011;8182;55.648;13.208;2023-05-10T04:17:09;9.80;;;3.93;;
16153;SDS011;8182;55.648;13.208;2023-05-10T04:19:39;6.80;;;4.80;;
16153;SDS011;8182;55.648;13.208;2023-05-10T04:22:07;8.53;;;4.63;;
16153;SDS011;8182;55.648;13.208;2023-05-10T04:24:37;7.20;;;4.30;;
16153;SDS011;8182;55.648;13.208;2023-05-10T04:27:07;7.17;;;4.40;;
16153;SDS011;8182;55.648;13.208;2023-05-10T04:29:41;7.13;;;4.00;;
16153;SDS011;8182;55.648;13.208;2023-05-10T04:32:08;7.80;;;3.50;;
16153;SDS011;8182;55.648;13.208;2023-05-10T04:34:36;10.07;;;4.30;;
16153;SDS011;8182;55.648;13.208;2023-05-10T04:39:43;6.80;;;3.87;;
16153;SDS011;8182;55.648;13.208;2023-05-10T04:42:17;7.17;;;4.70;;
16153;SDS011;8182;55.648;13.208;2023-05-10T04:44:44;7.10;;;4.40;;
16153;SDS011;8182;55.648;13.208;2023-05-10T04:47:18;5.33;;;4.40;;
16153;SDS011;8182;55.648;13.208;2023-05-10T04:49:46;7.03;;;4.43;;
16153;SDS011;8182;55.648;13.208;2023-05-10T04:52:17;8.57;;;4.30;;
16153;SDS011;8182;55.648;13.208;2023-05-10T04:54:44;7.43;;;4.90;;
16153;SDS011;8182;55.648;13.208;2023-05-10T04:57:12;10.17;;;4.77;;
16153;SDS011;8182;55.648;13.208;2023-05-10T04:59:40;10.07;;;4.57;;
16153;SDS011;8182;55.648;13.208;2023-05-10T05:02:14;4.90;;;3.90;;
16153;SDS011;8182;55.648;13.208;2023-05-10T05:04:42;6.10;;;4.40;;
16153;SDS011;8182;55.648;13.208;2023-05-10T05:07:13;8.33;;;4.60;;
16153;SDS011;8182;55.648;13.208;2023-05-10T05:09:45;7.70;;;3.27;;
16153;SDS011;8182;55.648;13.208;2023-05-10T05:12:12;6.90;;;4.43;;
16153;SDS011;8182;55.648;13.208;2023-05-10T05:14:41;8.73;;;4.70;;
16153;SDS011;8182;55.648;13.208;2023-05-10T05:17:08;6.30;;;3.20;;
16153;SDS011;8182;55.648;13.208;2023-05-10T05:19:35;8.30;;;4.33;;
16153;SDS011;8182;55.648;13.208;2023-05-10T05:22:03;9.10;;;4.67;;
16153;SDS011;8182;55.648;13.208;2023-05-10T05:24:34;6.27;;;3.57;;
16153;SDS011;8182;55.648;13.208;2023-05-10T05:27:02;6.80;;;4.40;;
16153;SDS011;8182;55.648;13.208;2023-05-10T05:29:29;8.23;;;4.67;;
16153;SDS011;8182;55.648;13.208;2023-05-10T05:32:00;7.77;;;4.80;;
16153;SDS011;8182;55.648;13.208;2023-05-10T05:34:42;5.80;;;4.13;;
16153;SDS011;8182;55.648;13.208;2023-05-10T05:37:13;9.83;;;4.77;;
16153;SDS011;8182;55.648;13.208;2023-05-10T05:39:46;8.10;;;4.47;;
16153;SDS011;8182;55.648;13.208;2023-05-10T05:42:14;8.77;;;4.70;;
16153;SDS011;8182;55.648;13.208;2023-05-10T05:44:42;6.17;;;4.90;;
16153;SDS011;8182;55.648;13.208;2023-05-10T05:47:11;9.13;;;4.70;;
16153;SDS011;8182;55.648;13.208;2023-05-10T05:49:39;8.87;;;3.90;;
16153;SDS011;8182;55.648;13.208;2023-05-10T05:52:06;8.10;;;4.63;;
16153;SDS011;8182;55.648;13.208;2023-05-10T05:54:41;9.13;;;4.40;;
16153;SDS011;8182;55.648;13.208;2023-05-10T05:59:56;10.83;;;4.70;;
16153;SDS011;8182;55.648;13.208;2023-05-10T06:02:27;9.07;;;3.73;;
16153;SDS011;8182;55.648;13.208;2023-05-10T06:04:56;7.10;;;4.40;;
16153;SDS011;8182;55.648;13.208;2023-05-10T06:07:47;7.33;;;3.40;;
16153;SDS011;8182;55.648;13.208;2023-05-10T06:10:17;7.53;;;3.83;;
16153;SDS011;8182;55.648;13.208;2023-05-10T06:12:50;5.07;;;3.73;;
16153;SDS011;8182;55.648;13.208;2023-05-10T06:15:27;8.60;;;4.37;;
16153;SDS011;8182;55.648;13.208;2023-05-10T06:17:56;6.50;;;4.80;;
16153;SDS011;8182;55.648;13.208;2023-05-10T06:20:29;8.33;;;3.70;;
16153;SDS011;8182;55.648;13.208;2023-05-10T06:23:06;8.07;;;4.33;;
16153;SDS011;8182;55.648;13.208;2023-05-10T06:25:37;8.10;;;3.87;;
16153;SDS011;8182;55.648;13.208;2023-05-10T06:28:05;5.87;;;3.33;;
16153;SDS011;8182;55.648;13.208;2023-05-10T06:30:35;7.50;;;3.63;;
16153;SDS011;8182;55.648;13.208;2023-05-10T06:33:12;7.60;;;4.37;;
16153;SDS011;8182;55.648;13.208;2023-05-10T06:35:41;9.30;;;5.00;;
16153;SDS011;8182;55.648;13.208;2023-05-10T06:38:09;9.30;;;3.97;;
16153;SDS011;8182;55.648;13.208;2023-05-10T06:40:46;4.13;;;2.83;;
16153;SDS011;8182;55.648;13.208;2023-05-10T06:43:13;8.20;;;4.50;;
16153;SDS011;8182;55.648;13.208;2023-05-10T06:45:43;6.20;;;4.73;;
16153;SDS011;8182;55.648;13.208;2023-05-10T06:48:12;6.37;;;4.40;;
16153;SDS011;8182;55.648;13.208;2023-05-10T06:50:39;8.17;;;4.00;;
16153;SDS011;8182;55.648;13.208;2023-05-10T06:53:06;6.47;;;4.63;;
16153;SDS011;8182;55.648;13.208;2023-05-10T06:55:35;5.83;;;3.23;;
16153;SDS011;8182;55.648;13.208;2023-05-10T06:58:08;7.90;;;4.57;;
16153;SDS011;8182;55.648;13.208;2023-05-10T07:00:40;4.30;;;3.43;;
16153;SDS011;8182;55.648;13.208;2023-05-10T07:03:12;8.47;;;3.80;;
16153;SDS011;8182;55.648;13.208;2023-05-10T07:05:53;5.87;;;4.30;;
16153;SDS011;8182;55.648;13.208;2023-05-10T07:08:28;5.67;;;4.53;;
16153;SDS011;8182;55.648;13.208;2023-05-10T07:10:59;9.07;;;4.90;;
16153;SDS011;8182;55.648;13.208;2023-05-10T07:13:40;7.67;;;4.73;;
16153;SDS011;8182;55.648;13.208;2023-05-10T07:16:14;7.73;;;3.70;;
16153;SDS011;8182;55.648;13.208;2023-05-10T07:18:50;7.30;;;4.63;;
16153;SDS011;8182;55.648;13.208;2023-05-10T07:21:19;4.73;;;3.60;;
16153;SDS011;8182;55.648;13.208;2023-05-10T07:23:49;9.13;;;4.20;;
16153;SDS011;8182;55.648;13.208;2023-05-10T07:26:17;5.10;;;4.33;;
16153;SDS011;8182;55.648;13.208;2023-05-10T07:28:44;7.83;;;4.77;;
16153;SDS011;8182;55.648;13.208;2023-05-10T07:31:14;9.93;;;4.03;;
16153;SDS011;8182;55.648;13.208;2023-05-10T07:33:42;6.07;;;4.77;;
16153;SDS011;8182;55.648;13.208;2023-05-10T07:36:15;5.10;;;3.80;;
16153;SDS011;8182;55.648;13.208;2023-05-10T07:38:44;9.33;;;5.00;;
16153;SDS011;8182;55.648;13.208;2023-05-10T07:41:12;8.03;;;4.50;;
16153;SDS011;8182;55.648;13.208;2023-05-10T07:43:39;5.17;;;4.27;;
16153;SDS011;8182;55.648;13.208;2023-05-10T07:46:16;6.87;;;4.40;;
16153;SDS011;8182;55.648;13.208;2023-05-10T07:48:45;8.30;;;4.63;;
16153;SDS011;8182;55.648;13.208;2023-05-10T07:51:17;6.30;;;4.77;;
16153;SDS011;8182;55.648;13.208;2023-05-10T07:53:44;7.93;;;4.53;;
16153;SDS011;8182;55.648;13.208;2023-05-10T07:56:19;5.07;;;3.70;;
16153;SDS011;8182;55.648;13.208;2023-05-10T07:58:49;5.10;;;3.73;;
16153;SDS011;8182;55.648;13.208;2023-05-10T08:01:19;7.33;;;4.67;;
16153;SDS011;8182;55.648;13.208;2023-05-10T08:03:47;5.67;;;4.30;;
16153;SDS011;8182;55.648;13.208;2023-05-10T08:06:18;6.20;;;3.93;;
16153;SDS011;8182;55.648;13.208;2023-05-10T08:08:47;8.87;;;4.43;;
16153;SDS011;8182;55.648;13.208;2023-05-10T08:11:16;6.57;;;4.50;;
16153;SDS011;8182;55.648;13.208;2023-05-10T08:13:53;7.77;;;4.60;;
16153;SDS011;8182;55.648;13.208;2023-05-10T08:16:26;6.83;;;3.90;;
16153;SDS011;8182;55.648;13.208;2023-05-10T08:18:57;7.27;;;4.23;;
16153;SDS011;8182;55.648;13.208;2023-05-10T08:21:27;5.90;;;3.00;;
16153;SDS011;8182;55.648;13.208;2023-05-10T08:23:56;6.60;;;4.10;;
16153;SDS011;8182;55.648;13.208;2023-05-10T08:26:26;7.97;;;4.60;;
16153;SDS011;8182;55.648;13.208;2023-05-10T08:28:54;11.17;;;4.50;;
16153;SDS011;8182;55.648;13.208;2023-05-10T08:31:24;5.47;;;4.27;;
16153;SDS011;8182;55.648;13.208;2023-05-10T08:34:03;5.90;;;4.20;;
16153;SDS011;8182;55.648;13.208;2023-05-10T08:36:33;5.07;;;4.50;;
16153;SDS011;8182;55.648;13.208;2023-05-10T08:39:01;7.47;;;4.13;;
16153;SDS011;8182;55.648;13.208;2023-05-10T08:44:17;6.73;;;4.10;;
16153;SDS011;8182;55.648;13.208;2023-05-10T08:46:51;5.47;;;4.17;;
16153;SDS011;8182;55.648;13.208;2023-05-10T08:49:21;8.13;;;4.47;;
16153;SDS011;8182;55.648;13.208;2023-05-10T08:52:09;6.90;;;4.20;;
16153;SDS011;8182;55.648;13.208;2023-05-10T08:54:50;5.13;;;3.20;;
16153;SDS011;8182;55.648;13.208;2023-05-10T08:57:18;8.17;;;4.73;;
16153;SDS011;8182;55.648;13.208;2023-05-10T08:59:46;4.13;;;2.40;;
16153;SDS011;8182;55.648;13.208;2023-05-10T09:02:20;4.33;;;3.63;;
16153;SDS011;8182;55.648;13.208;2023-05-10T09:04:52;6.13;;;3.63;;
16153;SDS011;8182;55.648;13.208;2023-05-10T09:07:27;9.33;;;4.10;;
16153;SDS011;8182;55.648;13.208;2023-05-10T09:09:55;6.53;;;3.77;;
16153;SDS011;8182;55.648;13.208;2023-05-10T09:12:28;7.73;;;4.30;;
16153;SDS011;8182;55.648;13.208;2023-05-10T09:14:59;8.37;;;4.60;;
16153;SDS011;8182;55.648;13.208;2023-05-10T09:17:35;6.37;;;3.90;;
16153;SDS011;8182;55.648;13.208;2023-05-10T09:20:04;6.60;;;3.80;;
16153;SDS011;8182;55.648;13.208;2023-05-10T09:22:34;4.70;;;4.00;;
16153;SDS011;8182;55.648;13.208;2023-05-10T09:25:05;6.43;;;4.10;;
16153;SDS011;8182;55.648;13.208;2023-05-10T09:27:33;7.07;;;4.13;;
16153;SDS011;8182;55.648;13.208;2023-05-10T09:30:03;8.93;;;4.17;;
16153;SDS011;8182;55.648;13.208;2023-05-10T09:32:38;8.77;;;4.13;;
16153;SDS011;8182;55.648;13.208;2023-05-10T09:35:07;6.63;;;4.10;;
16153;SDS011;8182;55.648;13.208;2023-05-10T09:37:41;4.37;;;3.40;;
16153;SDS011;8182;55.648;13.208;2023-05-10T09:40:12;7.13;;;4.27;;
16153;SDS011;8182;55.648;13.208;2023-05-10T09:45:34;7.83;;;3.47;;
16153;SDS011;8182;55.648;13.208;2023-05-10T09:48:03;4.97;;;3.53;;
16153;SDS011;8182;55.648;13.208;2023-05-10T09:50:42;6.90;;;3.93;;
16153;SDS011;8182;55.648;13.208;2023-05-10T09:53:28;6.70;;;3.93;;
16153;SDS011;8182;55.648;13.208;2023-05-10T09:55:57;8.17;;;3.90;;
16153;SDS011;8182;55.648;13.208;2023-05-10T09:58:24;7.10;;;3.90;;
16153;SDS011;8182;55.648;13.208;2023-05-10T10:00:52;6.53;;;3.93;;
16153;SDS011;8182;55.648;13.208;2023-05-10T10:03:20;6.47;;;3.43;;
16153;SDS011;8182;55.648;13.208;2023-05-10T10:05:49;4.97;;;3.37;;
16153;SDS011;8182;55.648;13.208;2023-05-10T10:08:22;4.20;;;3.20;;
16153;SDS011;8182;55.648;13.208;2023-05-10T10:10:51;3.97;;;3.03;;
16153;SDS011;8182;55.648;13.208;2023-05-10T10:13:18;7.73;;;3.83;;
16153;SDS011;8182;55.648;13.208;2023-05-10T10:15:52;8.33;;;3.73;;
16153;SDS011;8182;55.648;13.208;2023-05-10T10:18:22;9.47;;;3.40;;
16153;SDS011;8182;55.648;13.208;2023-05-10T10:20:52;6.67;;;3.63;;
16153;SDS011;8182;55.648;13.208;2023-05-10T10:23:26;6.63;;;3.13;;
16153;SDS011;8182;55.648;13.208;2023-05-10T10:25:56;4.23;;;3.07;;
16153;SDS011;8182;55.648;13.208;2023-05-10T10:28:26;4.23;;;3.40;;
16153;SDS011;8182;55.648;13.208;2023-05-10T10:31:10;8.50;;;3.37;;
16153;SDS011;8182;55.648;13.208;2023-05-10T10:33:50;6.97;;;3.33;;
16153;SDS011;8182;55.648;13.208;2023-05-10T10:36:26;7.77;;;3.50;;
16153;SDS011;8182;55.648;13.208;2023-05-10T10:39:08;5.93;;;3.90;;
16153;SDS011;8182;55.648;13.208;2023-05-10T10:41:53;9.30;;;3.70;;
16153;SDS011;8182;55.648;13.208;2023-05-10T10:44:26;5.23;;;3.60;;
16153;SDS011;8182;55.648;13.208;2023-05-10T10:47:06;8.50;;;2.97;;
16153;SDS011;8182;55.648;13.208;2023-05-10T10:49:43;11.90;;;3.70;;
16153;SDS011;8182;55.648;13.208;2023-05-10T10:52:18;6.27;;;3.50;;
16153;SDS011;8182;55.648;13.208;2023-05-10T10:54:59;6.83;;;3.50;;
16153;SDS011;8182;55.648;13.208;2023-05-10T10:57:34;4.47;;;2.50;;
16153;SDS011;8182;55.648;13.208;2023-05-10T11:02:59;7.27;;;3.20;;
16153;SDS011;8182;55.648;13.208;2023-05-10T11:05:40;6.37;;;3.40;;
16153;SDS011;8182;55.648;13.208;2023-05-10T11:08:10;5.47;;;2.87;;
16153;SDS011;8182;55.648;13.208;2023-05-10T11:10:54;3.37;;;2.97;;
16153;SDS011;8182;55.648;13.208;2023-05-10T11:14:04;9.47;;;3.30;;
16153;SDS011;8182;55.648;13.208;2023-05-10T11:16:42;5.13;;;2.63;;
16153;SDS011;8182;55.648;13.208;2023-05-10T11:19:11;4.83;;;3.10;;
16153;SDS011;8182;55.648;13.208;2023-05-10T11:21:48;6.90;;;3.33;;
16153;SDS011;8182;55.648;13.208;2023-05-10T11:27:10;5.77;;;2.53;;
16153;SDS011;8182;55.648;13.208;2023-05-10T11:29:40;7.33;;;3.00;;
16153;SDS011;8182;55.648;13.208;2023-05-10T11:32:15;5.10;;;2.97;;
16153;SDS011;8182;55.648;13.208;2023-05-10T11:34:42;9.17;;;2.30;;
16153;SDS011;8182;55.648;13.208;2023-05-10T11:37:14;4.00;;;2.30;;
16153;SDS011;8182;55.648;13.208;2023-05-10T11:39:45;4.43;;;2.67;;
16153;SDS011;8182;55.648;13.208;2023-05-10T11:42:17;4.07;;;2.47;;
16153;SDS011;8182;55.648;13.208;2023-05-10T11:44:46;6.43;;;2.80;;
16153;SDS011;8182;55.648;13.208;2023-05-10T11:47:15;4.43;;;3.10;;
16153;SDS011;8182;55.648;13.208;2023-05-10T11:49:43;5.47;;;2.93;;
16153;SDS011;8182;55.648;13.208;2023-05-10T11:52:10;4.27;;;2.90;;
16153;SDS011;8182;55.648;13.208;2023-05-10T11:54:37;6.17;;;3.23;;
16153;SDS011;8182;55.648;13.208;2023-05-10T11:57:13;6.93;;;3.00;;
16153;SDS011;8182;55.648;13.208;2023-05-10T11:59:40;5.17;;;3.17;;
16153;SDS011;8182;55.648;13.208;2023-05-10T12:02:09;7.90;;;2.47;;
16153;SDS011;8182;55.648;13.208;2023-05-10T12:04:43;5.13;;;3.10;;
16153;SDS011;8182;55.648;13.208;2023-05-10T12:07:17;7.93;;;3.20;;
16153;SDS011;8182;55.648;13.208;2023-05-10T12:12:40;4.13;;;2.80;;
16153;SDS011;8182;55.648;13.208;2023-05-10T12:15:17;9.03;;;3.10;;
16153;SDS011;8182;55.648;13.208;2023-05-10T12:17:50;13.53;;;3.03;;
16153;SDS011;8182;55.648;13.208;2023-05-10T12:20:23;5.37;;;2.60;;
16153;SDS011;8182;55.648;13.208;2023-05-10T12:22:57;6.07;;;2.60;;
16153;SDS011;8182;55.648;13.208;2023-05-10T12:25:29;3.80;;;2.13;;
16153;SDS011;8182;55.648;13.208;2023-05-10T12:27:58;6.73;;;3.47;;
16153;SDS011;8182;55.648;13.208;2023-05-10T12:30:27;3.80;;;2.50;;
16153;SDS011;8182;55.648;13.208;2023-05-10T12:33:00;4.50;;;2.60;;
16153;SDS011;8182;55.648;13.208;2023-05-10T12:35:30;4.93;;;2.63;;
16153;SDS011;8182;55.648;13.208;2023-05-10T12:37:57;3.93;;;2.83;;
16153;SDS011;8182;55.648;13.208;2023-05-10T12:40:24;5.97;;;2.67;;
16153;SDS011;8182;55.648;13.208;2023-05-10T12:42:51;4.90;;;2.77;;
16153;SDS011;8182;55.648;13.208;2023-05-10T12:45:18;7.50;;;2.83;;
16153;SDS011;8182;55.648;13.208;2023-05-10T12:48:08;5.20;;;2.93;;
16153;SDS011;8182;55.648;13.208;2023-05-10T12:53:14;6.13;;;3.17;;
16153;SDS011;8182;55.648;13.208;2023-05-10T12:55:48;6.70;;;3.00;;
16153;SDS011;8182;55.648;13.208;2023-05-10T12:58:15;5.17;;;2.53;;
16153;SDS011;8182;55.648;13.208;2023-05-10T13:00:51;4.60;;;2.70;;
16153;SDS011;8182;55.648;13.208;2023-05-10T13:03:21;7.97;;;2.90;;
16153;SDS011;8182;55.648;13.208;2023-05-10T13:05:57;2.93;;;2.63;;
16153;SDS011;8182;55.648;13.208;2023-05-10T13:08:26;6.03;;;2.80;;
16153;SDS011;8182;55.648;13.208;2023-05-10T13:10:57;4.53;;;2.27;;
16153;SDS011;8182;55.648;13.208;2023-05-10T13:13:25;8.30;;;2.70;;
16153;SDS011;8182;55.648;13.208;2023-05-10T13:15:55;6.33;;;2.47;;
16153;SDS011;8182;55.648;13.208;2023-05-10T13:18:24;7.10;;;2.60;;
16153;SDS011;8182;55.648;13.208;2023-05-10T13:20:52;4.17;;;2.80;;
16153;SDS011;8182;55.648;13.208;2023-05-10T13:23:20;8.23;;;3.00;;
16153;SDS011;8182;55.648;13.208;2023-05-10T13:25:48;8.20;;;3.50;;
16153;SDS011;8182;55.648;13.208;2023-05-10T13:28:15;5.87;;;2.90;;
16153;SDS011;8182;55.648;13.208;2023-05-10T13:30:47;4.93;;;2.50;;
16153;SDS011;8182;55.648;13.208;2023-05-10T13:33:16;6.43;;;2.60;;
16153;SDS011;8182;55.648;13.208;2023-05-10T13:35:45;4.23;;;2.60;;
16153;SDS011;8182;55.648;13.208;2023-05-10T13:38:12;4.20;;;2.50;;
16153;SDS011;8182;55.648;13.208;2023-05-10T13:40:39;5.73;;;2.73;;
16153;SDS011;8182;55.648;13.208;2023-05-10T13:43:12;3.07;;;2.77;;
16153;SDS011;8182;55.648;13.208;2023-05-10T13:45:41;3.60;;;2.33;;
16153;SDS011;8182;55.648;13.208;2023-05-10T13:48:14;2.73;;;2.43;;
16153;SDS011;8182;55.648;13.208;2023-05-10T13:50:46;5.27;;;2.20;;
16153;SDS011;8182;55.648;13.208;2023-05-10T13:53:13;3.70;;;2.13;;
16153;SDS011;8182;55.648;13.208;2023-05-10T13:55:43;3.90;;;2.50;;
16153;SDS011;8182;55.648;13.208;2023-05-10T13:58:11;3.47;;;2.90;;
16153;SDS011;8182;55.648;13.208;2023-05-10T14:00:39;3.33;;;2.50;;
16153;SDS011;8182;55.648;13.208;2023-05-10T14:03:08;4.57;;;2.60;;
16153;SDS011;8182;55.648;13.208;2023-05-10T14:05:36;6.87;;;2.47;;
16153;SDS011;8182;55.648;13.208;2023-05-10T14:08:05;6.17;;;2.40;;
16153;SDS011;8182;55.648;13.208;2023-05-10T14:10:34;6.57;;;2.70;;
16153;SDS011;8182;55.648;13.208;2023-05-10T14:13:05;4.20;;;3.10;;
16153;SDS011;8182;55.648;13.208;2023-05-10T14:15:33;4.97;;;2.37;;
16153;SDS011;8182;55.648;13.208;2023-05-10T14:18:00;7.83;;;1.90;;
16153;SDS011;8182;55.648;13.208;2023-05-10T14:20:28;4.83;;;2.13;;
16153;SDS011;8182;55.648;13.208;2023-05-10T14:22:55;3.37;;;2.63;;
16153;SDS011;8182;55.648;13.208;2023-05-10T14:25:23;2.57;;;1.90;;
16153;SDS011;8182;55.648;13.208;2023-05-10T14:27:50;2.77;;;2.20;;
16153;SDS011;8182;55.648;13.208;2023-05-10T14:30:20;4.70;;;2.40;;
16153;SDS011;8182;55.648;13.208;2023-05-10T14:32:47;2.73;;;1.83;;
16153;SDS011;8182;55.648;13.208;2023-05-10T14:35:23;4.93;;;2.30;;
16153;SDS011;8182;55.648;13.208;2023-05-10T14:37:50;2.50;;;2.13;;
16153;SDS011;8182;55.648;13.208;2023-05-10T14:40:17;1.87;;;1.67;;
16153;SDS011;8182;55.648;13.208;2023-05-10T14:42:46;2.20;;;1.90;;
16153;SDS011;8182;55.648;13.208;2023-05-10T14:45:13;5.83;;;2.40;;
16153;SDS011;8182;55.648;13.208;2023-05-10T14:47:40;4.60;;;2.37;;
16153;SDS011;8182;55.648;13.208;2023-05-10T14:50:08;3.70;;;1.77;;
16153;SDS011;8182;55.648;13.208;2023-05-10T14:52:36;2.60;;;2.40;;
16153;SDS011;8182;55.648;13.208;2023-05-10T14:55:06;2.90;;;1.90;;
16153;SDS011;8182;55.648;13.208;2023-05-10T14:57:35;4.07;;;2.13;;
16153;SDS011;8182;55.648;13.208;2023-05-10T15:00:08;3.27;;;2.33;;
16153;SDS011;8182;55.648;13.208;2023-05-10T15:02:36;6.53;;;2.50;;
16153;SDS011;8182;55.648;13.208;2023-05-10T15:05:19;4.03;;;2.80;;
16153;SDS011;8182;55.648;13.208;2023-05-10T15:07:46;7.80;;;2.40;;
16153;SDS011;8182;55.648;13.208;2023-05-10T15:10:14;6.37;;;2.60;;
16153;SDS011;8182;55.648;13.208;2023-05-10T15:12:41;4.53;;;2.70;;
16153;SDS011;8182;55.648;13.208;2023-05-10T15:15:10;7.73;;;2.60;;
16153;SDS011;8182;55.648;13.208;2023-05-10T15:17:37;6.33;;;3.10;;
16153;SDS011;8182;55.648;13.208;2023-05-10T15:20:05;4.17;;;2.30;;
16153;SDS011;8182;55.648;13.208;2023-05-10T15:22:36;2.77;;;2.23;;
16153;SDS011;8182;55.648;13.208;2023-05-10T15:25:05;6.03;;;2.57;;
16153;SDS011;8182;55.648;13.208;2023-05-10T15:27:33;5.47;;;2.30;;
16153;SDS011;8182;55.648;13.208;2023-05-10T15:30:01;6.90;;;2.30;;
16153;SDS011;8182;55.648;13.208;2023-05-10T15:32:30;3.90;;;2.70;;
16153;SDS011;8182;55.648;13.208;2023-05-10T15:34:57;2.83;;;1.90;;
16153;SDS011;8182;55.648;13.208;2023-05-10T15:37:25;3.63;;;2.40;;
16153;SDS011;8182;55.648;13.208;2023-05-10T15:39:53;6.53;;;2.67;;
16153;SDS011;8182;55.648;13.208;2023-05-10T15:42:27;3.30;;;2.47;;